<?xml version="1.0" encoding="UTF-8" standalone="no" ?>
<gpx xmlns="http://www.topografix.com/GPX/1/1" xmlns:xsi="http://www.w3.org/2001/XMLSchema-instance" xsi:schemaLocation="http://www.topografix.com/GPX/1/1 http://www.topografix.com/GPX/1/1/gpx.xsd" version="1.1" creator="VisuGPX - https://www.visugpx.com">
  <metadata>
    <name>St pierre de Clairac 9.5 km</name>
  </metadata>
  <trk>
    <name><![CDATA[Randonnée du 09/01/2024 à 14:04]]></name>
    <extensions>
      <line xmlns="http://www.topografix.com/GPX/gpx_style/0/2">
        <color>0000FF</color>
        <width>4</width>
      </line>
    </extensions>
    <trkseg>
      <trkpt lat="44.17921" lon="0.76085">
        <ele>67</ele>
        <time>2024-01-09T14:04:28+01:00</time>
      </trkpt>
      <trkpt lat="44.1791" lon="0.76069">
        <ele>67.1</ele>
        <time>2024-01-09T14:04:57+01:00</time>
      </trkpt>
      <trkpt lat="44.17911" lon="0.76054">
        <ele>67</ele>
        <time>2024-01-09T14:05:17+01:00</time>
      </trkpt>
      <trkpt lat="44.17911" lon="0.76039">
        <ele>67</ele>
        <time>2024-01-09T14:06:07+01:00</time>
      </trkpt>
      <trkpt lat="44.17924" lon="0.76038">
        <ele>67</ele>
        <time>2024-01-09T14:06:22+01:00</time>
      </trkpt>
      <trkpt lat="44.17934" lon="0.7603">
        <ele>67</ele>
        <time>2024-01-09T14:06:37+01:00</time>
      </trkpt>
      <trkpt lat="44.17939" lon="0.76013">
        <ele>66.5</ele>
        <time>2024-01-09T14:06:46+01:00</time>
      </trkpt>
      <trkpt lat="44.17948" lon="0.75976">
        <ele>65.9</ele>
        <time>2024-01-09T14:07:06+01:00</time>
      </trkpt>
      <trkpt lat="44.17957" lon="0.75939">
        <ele>65.3</ele>
        <time>2024-01-09T14:07:37+01:00</time>
      </trkpt>
      <trkpt lat="44.17964" lon="0.75919">
        <ele>64.4</ele>
        <time>2024-01-09T14:07:47+01:00</time>
      </trkpt>
      <trkpt lat="44.17973" lon="0.75901">
        <ele>64</ele>
        <time>2024-01-09T14:07:57+01:00</time>
      </trkpt>
      <trkpt lat="44.17981" lon="0.75886">
        <ele>63.7</ele>
        <time>2024-01-09T14:08:07+01:00</time>
      </trkpt>
      <trkpt lat="44.18008" lon="0.75828">
        <ele>63.5</ele>
        <time>2024-01-09T14:08:47+01:00</time>
      </trkpt>
      <trkpt lat="44.18016" lon="0.75811">
        <ele>62.6</ele>
        <time>2024-01-09T14:08:57+01:00</time>
      </trkpt>
      <trkpt lat="44.18004" lon="0.75799">
        <ele>62.8</ele>
        <time>2024-01-09T14:09:07+01:00</time>
      </trkpt>
      <trkpt lat="44.17991" lon="0.75785">
        <ele>62.7</ele>
        <time>2024-01-09T14:09:17+01:00</time>
      </trkpt>
      <trkpt lat="44.17977" lon="0.7577">
        <ele>62.1</ele>
        <time>2024-01-09T14:09:27+01:00</time>
      </trkpt>
      <trkpt lat="44.1797" lon="0.75751">
        <ele>62</ele>
        <time>2024-01-09T14:09:37+01:00</time>
      </trkpt>
      <trkpt lat="44.17959" lon="0.75715">
        <ele>61.9</ele>
        <time>2024-01-09T14:09:57+01:00</time>
      </trkpt>
      <trkpt lat="44.1794" lon="0.75656">
        <ele>61.2</ele>
        <time>2024-01-09T14:10:27+01:00</time>
      </trkpt>
      <trkpt lat="44.17935" lon="0.75642">
        <ele>61.3</ele>
        <time>2024-01-09T14:10:37+01:00</time>
      </trkpt>
      <trkpt lat="44.17928" lon="0.75619">
        <ele>61.6</ele>
        <time>2024-01-09T14:10:47+01:00</time>
      </trkpt>
      <trkpt lat="44.17912" lon="0.75569">
        <ele>61.7</ele>
        <time>2024-01-09T14:11:17+01:00</time>
      </trkpt>
      <trkpt lat="44.17902" lon="0.75537">
        <ele>63</ele>
        <time>2024-01-09T14:11:36+01:00</time>
      </trkpt>
      <trkpt lat="44.17896" lon="0.7552">
        <ele>64.2</ele>
      </trkpt>
      <trkpt lat="44.17892" lon="0.75508">
        <ele>65.2</ele>
        <time>2024-01-09T14:11:46+01:00</time>
      </trkpt>
      <trkpt lat="44.17884" lon="0.75481">
        <ele>66.8</ele>
        <time>2024-01-09T14:12:06+01:00</time>
      </trkpt>
      <trkpt lat="44.17866" lon="0.75427">
        <ele>66.2</ele>
        <time>2024-01-09T14:13:01+01:00</time>
      </trkpt>
      <trkpt lat="44.17865" lon="0.75403">
        <ele>65.7</ele>
        <time>2024-01-09T14:13:11+01:00</time>
      </trkpt>
      <trkpt lat="44.17863" lon="0.75381">
        <ele>65.8</ele>
        <time>2024-01-09T14:13:21+01:00</time>
      </trkpt>
      <trkpt lat="44.17857" lon="0.75367">
        <ele>66.2</ele>
        <time>2024-01-09T14:13:31+01:00</time>
      </trkpt>
      <trkpt lat="44.17848" lon="0.75354">
        <ele>66.3</ele>
        <time>2024-01-09T14:13:41+01:00</time>
      </trkpt>
      <trkpt lat="44.17822" lon="0.75306">
        <ele>66.4</ele>
        <time>2024-01-09T14:14:11+01:00</time>
      </trkpt>
      <trkpt lat="44.17815" lon="0.75295">
        <ele>66.6</ele>
        <time>2024-01-09T14:14:21+01:00</time>
      </trkpt>
      <trkpt lat="44.17811" lon="0.75285">
        <ele>66.8</ele>
        <time>2024-01-09T14:14:31+01:00</time>
      </trkpt>
      <trkpt lat="44.17806" lon="0.75272">
        <ele>66.8</ele>
        <time>2024-01-09T14:14:56+01:00</time>
      </trkpt>
      <trkpt lat="44.17801" lon="0.75262">
        <ele>66.4</ele>
        <time>2024-01-09T14:15:06+01:00</time>
      </trkpt>
      <trkpt lat="44.17789" lon="0.75234">
        <ele>65.8</ele>
        <time>2024-01-09T14:15:31+01:00</time>
      </trkpt>
      <trkpt lat="44.17785" lon="0.75221">
        <ele>65.7</ele>
        <time>2024-01-09T14:15:41+01:00</time>
      </trkpt>
      <trkpt lat="44.1778" lon="0.7521">
        <ele>65.5</ele>
        <time>2024-01-09T14:16:06+01:00</time>
      </trkpt>
      <trkpt lat="44.17777" lon="0.75199">
        <ele>65.2</ele>
        <time>2024-01-09T14:16:16+01:00</time>
      </trkpt>
      <trkpt lat="44.1777" lon="0.75184">
        <ele>65.2</ele>
        <time>2024-01-09T14:16:26+01:00</time>
      </trkpt>
      <trkpt lat="44.17766" lon="0.75172">
        <ele>65.1</ele>
        <time>2024-01-09T14:16:35+01:00</time>
      </trkpt>
      <trkpt lat="44.17748" lon="0.75122">
        <ele>65</ele>
        <time>2024-01-09T14:17:07+01:00</time>
      </trkpt>
      <trkpt lat="44.17737" lon="0.75097">
        <ele>65.7</ele>
        <time>2024-01-09T14:17:17+01:00</time>
      </trkpt>
      <trkpt lat="44.17728" lon="0.75073">
        <ele>66</ele>
        <time>2024-01-09T14:17:26+01:00</time>
      </trkpt>
      <trkpt lat="44.17745" lon="0.75049">
        <ele>65.8</ele>
        <time>2024-01-09T14:17:37+01:00</time>
      </trkpt>
      <trkpt lat="44.17754" lon="0.75035">
        <ele>65.2</ele>
        <time>2024-01-09T14:17:47+01:00</time>
      </trkpt>
      <trkpt lat="44.17762" lon="0.75025">
        <ele>65</ele>
        <time>2024-01-09T14:17:57+01:00</time>
      </trkpt>
      <trkpt lat="44.17767" lon="0.75013">
        <ele>65</ele>
        <time>2024-01-09T14:18:07+01:00</time>
      </trkpt>
      <trkpt lat="44.17763" lon="0.74996">
        <ele>64.9</ele>
        <time>2024-01-09T14:18:17+01:00</time>
      </trkpt>
      <trkpt lat="44.17748" lon="0.74962">
        <ele>65</ele>
        <time>2024-01-09T14:18:37+01:00</time>
      </trkpt>
      <trkpt lat="44.17743" lon="0.74944">
        <ele>65</ele>
        <time>2024-01-09T14:18:47+01:00</time>
      </trkpt>
      <trkpt lat="44.17733" lon="0.7493">
        <ele>64.8</ele>
        <time>2024-01-09T14:18:57+01:00</time>
      </trkpt>
      <trkpt lat="44.17705" lon="0.74896">
        <ele>65</ele>
        <time>2024-01-09T14:19:27+01:00</time>
      </trkpt>
      <trkpt lat="44.17687" lon="0.74868">
        <ele>65</ele>
        <time>2024-01-09T14:19:47+01:00</time>
      </trkpt>
      <trkpt lat="44.17679" lon="0.74855">
        <ele>64.8</ele>
        <time>2024-01-09T14:19:57+01:00</time>
      </trkpt>
      <trkpt lat="44.17669" lon="0.74844">
        <ele>64.4</ele>
        <time>2024-01-09T14:20:17+01:00</time>
      </trkpt>
      <trkpt lat="44.17674" lon="0.74831">
        <ele>64</ele>
        <time>2024-01-09T14:21:07+01:00</time>
      </trkpt>
      <trkpt lat="44.17667" lon="0.74817">
        <ele>64</ele>
        <time>2024-01-09T14:21:22+01:00</time>
      </trkpt>
      <trkpt lat="44.17657" lon="0.74805">
        <ele>64</ele>
        <time>2024-01-09T14:21:57+01:00</time>
      </trkpt>
      <trkpt lat="44.1765" lon="0.74789">
        <ele>63.4</ele>
        <time>2024-01-09T14:22:07+01:00</time>
      </trkpt>
      <trkpt lat="44.17634" lon="0.74765">
        <ele>62.9</ele>
        <time>2024-01-09T14:22:27+01:00</time>
      </trkpt>
      <trkpt lat="44.17619" lon="0.7474">
        <ele>62.2</ele>
        <time>2024-01-09T14:22:46+01:00</time>
      </trkpt>
      <trkpt lat="44.17611" lon="0.74728">
        <ele>62</ele>
        <time>2024-01-09T14:22:57+01:00</time>
      </trkpt>
      <trkpt lat="44.17603" lon="0.74714">
        <ele>61.7</ele>
        <time>2024-01-09T14:23:07+01:00</time>
      </trkpt>
      <trkpt lat="44.17587" lon="0.74691">
        <ele>61</ele>
        <time>2024-01-09T14:23:26+01:00</time>
      </trkpt>
      <trkpt lat="44.17578" lon="0.74688">
        <ele>61</ele>
        <time>2024-01-09T14:23:37+01:00</time>
      </trkpt>
      <trkpt lat="44.17567" lon="0.74692">
        <ele>61</ele>
        <time>2024-01-09T14:23:57+01:00</time>
      </trkpt>
      <trkpt lat="44.17557" lon="0.74698">
        <ele>61.1</ele>
        <time>2024-01-09T14:24:07+01:00</time>
      </trkpt>
      <trkpt lat="44.17542" lon="0.74723">
        <ele>62</ele>
        <time>2024-01-09T14:24:27+01:00</time>
      </trkpt>
      <trkpt lat="44.17535" lon="0.74733">
        <ele>62</ele>
        <time>2024-01-09T14:24:42+01:00</time>
      </trkpt>
      <trkpt lat="44.17529" lon="0.74746">
        <ele>62</ele>
        <time>2024-01-09T14:24:52+01:00</time>
      </trkpt>
      <trkpt lat="44.17522" lon="0.74762">
        <ele>62.7</ele>
        <time>2024-01-09T14:25:02+01:00</time>
      </trkpt>
      <trkpt lat="44.17516" lon="0.74774">
        <ele>63</ele>
        <time>2024-01-09T14:25:12+01:00</time>
      </trkpt>
      <trkpt lat="44.17499" lon="0.7479">
        <ele>63</ele>
        <time>2024-01-09T14:25:32+01:00</time>
      </trkpt>
      <trkpt lat="44.1749" lon="0.74781">
        <ele>63.3</ele>
        <time>2024-01-09T14:25:47+01:00</time>
      </trkpt>
      <trkpt lat="44.17482" lon="0.7477">
        <ele>64</ele>
        <time>2024-01-09T14:25:57+01:00</time>
      </trkpt>
      <trkpt lat="44.17474" lon="0.74758">
        <ele>64.7</ele>
        <time>2024-01-09T14:26:07+01:00</time>
      </trkpt>
      <trkpt lat="44.17465" lon="0.7475">
        <ele>65</ele>
        <time>2024-01-09T14:26:17+01:00</time>
      </trkpt>
      <trkpt lat="44.17458" lon="0.74736">
        <ele>65</ele>
        <time>2024-01-09T14:27:17+01:00</time>
      </trkpt>
      <trkpt lat="44.17445" lon="0.74717">
        <ele>65</ele>
        <time>2024-01-09T14:27:27+01:00</time>
      </trkpt>
      <trkpt lat="44.17439" lon="0.74708">
        <ele>65</ele>
        <time>2024-01-09T14:27:37+01:00</time>
      </trkpt>
      <trkpt lat="44.17431" lon="0.74697">
        <ele>65</ele>
        <time>2024-01-09T14:27:47+01:00</time>
      </trkpt>
      <trkpt lat="44.17423" lon="0.74689">
        <ele>64.8</ele>
        <time>2024-01-09T14:27:57+01:00</time>
      </trkpt>
      <trkpt lat="44.17416" lon="0.74678">
        <ele>64.4</ele>
        <time>2024-01-09T14:28:12+01:00</time>
      </trkpt>
      <trkpt lat="44.1741" lon="0.74665">
        <ele>63.9</ele>
        <time>2024-01-09T14:28:27+01:00</time>
      </trkpt>
      <trkpt lat="44.17429" lon="0.74644">
        <ele>62</ele>
        <time>2024-01-09T14:28:47+01:00</time>
      </trkpt>
      <trkpt lat="44.17438" lon="0.7463">
        <ele>60.8</ele>
        <time>2024-01-09T14:28:57+01:00</time>
      </trkpt>
      <trkpt lat="44.17458" lon="0.74604">
        <ele>59.7</ele>
        <time>2024-01-09T14:29:17+01:00</time>
      </trkpt>
      <trkpt lat="44.17474" lon="0.74575">
        <ele>59</ele>
        <time>2024-01-09T14:29:37+01:00</time>
      </trkpt>
      <trkpt lat="44.17481" lon="0.74564">
        <ele>59.1</ele>
        <time>2024-01-09T14:29:47+01:00</time>
      </trkpt>
      <trkpt lat="44.1749" lon="0.74553">
        <ele>59</ele>
        <time>2024-01-09T14:29:56+01:00</time>
      </trkpt>
      <trkpt lat="44.17499" lon="0.7454">
        <ele>59</ele>
        <time>2024-01-09T14:30:07+01:00</time>
      </trkpt>
      <trkpt lat="44.17507" lon="0.74526">
        <ele>59</ele>
      </trkpt>
      <trkpt lat="44.17525" lon="0.74502">
        <ele>59</ele>
        <time>2024-01-09T14:30:37+01:00</time>
      </trkpt>
      <trkpt lat="44.17535" lon="0.7449">
        <ele>59</ele>
        <time>2024-01-09T14:30:47+01:00</time>
      </trkpt>
      <trkpt lat="44.17542" lon="0.74476">
        <ele>59</ele>
        <time>2024-01-09T14:30:57+01:00</time>
      </trkpt>
      <trkpt lat="44.17551" lon="0.74463">
        <ele>58.7</ele>
        <time>2024-01-09T14:31:07+01:00</time>
      </trkpt>
      <trkpt lat="44.17561" lon="0.74453">
        <ele>58.3</ele>
        <time>2024-01-09T14:31:17+01:00</time>
      </trkpt>
      <trkpt lat="44.17571" lon="0.74444">
        <ele>58</ele>
        <time>2024-01-09T14:31:27+01:00</time>
      </trkpt>
      <trkpt lat="44.17588" lon="0.74419">
        <ele>58</ele>
        <time>2024-01-09T14:31:47+01:00</time>
      </trkpt>
      <trkpt lat="44.17597" lon="0.74408">
        <ele>57.8</ele>
        <time>2024-01-09T14:31:56+01:00</time>
      </trkpt>
      <trkpt lat="44.17619" lon="0.74394">
        <ele>57.1</ele>
        <time>2024-01-09T14:32:16+01:00</time>
      </trkpt>
      <trkpt lat="44.17627" lon="0.74381">
        <ele>57</ele>
        <time>2024-01-09T14:32:26+01:00</time>
      </trkpt>
      <trkpt lat="44.1763" lon="0.74361">
        <ele>56.7</ele>
        <time>2024-01-09T14:32:41+01:00</time>
      </trkpt>
      <trkpt lat="44.17629" lon="0.74343">
        <ele>56.5</ele>
        <time>2024-01-09T14:32:51+01:00</time>
      </trkpt>
      <trkpt lat="44.1763" lon="0.74328">
        <ele>56.3</ele>
        <time>2024-01-09T14:33:01+01:00</time>
      </trkpt>
      <trkpt lat="44.17629" lon="0.74309">
        <ele>56.4</ele>
        <time>2024-01-09T14:33:21+01:00</time>
      </trkpt>
      <trkpt lat="44.17631" lon="0.74281">
        <ele>56.3</ele>
        <time>2024-01-09T14:33:41+01:00</time>
      </trkpt>
      <trkpt lat="44.17631" lon="0.74259">
        <ele>56.1</ele>
        <time>2024-01-09T14:33:51+01:00</time>
      </trkpt>
      <trkpt lat="44.1763" lon="0.74241">
        <ele>56</ele>
        <time>2024-01-09T14:34:01+01:00</time>
      </trkpt>
      <trkpt lat="44.17631" lon="0.74203">
        <ele>56</ele>
        <time>2024-01-09T14:34:21+01:00</time>
      </trkpt>
      <trkpt lat="44.17632" lon="0.74169">
        <ele>56</ele>
        <time>2024-01-09T14:34:41+01:00</time>
      </trkpt>
      <trkpt lat="44.17631" lon="0.7415">
        <ele>56</ele>
        <time>2024-01-09T14:34:51+01:00</time>
      </trkpt>
      <trkpt lat="44.17632" lon="0.7413">
        <ele>56</ele>
        <time>2024-01-09T14:35:01+01:00</time>
      </trkpt>
      <trkpt lat="44.17632" lon="0.74094">
        <ele>56</ele>
        <time>2024-01-09T14:35:21+01:00</time>
      </trkpt>
      <trkpt lat="44.17632" lon="0.74062">
        <ele>55.4</ele>
        <time>2024-01-09T14:35:41+01:00</time>
      </trkpt>
      <trkpt lat="44.17631" lon="0.74038">
        <ele>55.7</ele>
        <time>2024-01-09T14:35:51+01:00</time>
      </trkpt>
      <trkpt lat="44.17639" lon="0.74009">
        <ele>55.3</ele>
        <time>2024-01-09T14:36:12+01:00</time>
      </trkpt>
      <trkpt lat="44.17645" lon="0.73994">
        <ele>55.2</ele>
        <time>2024-01-09T14:36:22+01:00</time>
      </trkpt>
      <trkpt lat="44.17658" lon="0.73974">
        <ele>55.3</ele>
        <time>2024-01-09T14:36:42+01:00</time>
      </trkpt>
      <trkpt lat="44.17666" lon="0.73962">
        <ele>55</ele>
        <time>2024-01-09T14:36:52+01:00</time>
      </trkpt>
      <trkpt lat="44.17674" lon="0.73948">
        <ele>55</ele>
        <time>2024-01-09T14:37:02+01:00</time>
      </trkpt>
      <trkpt lat="44.1768" lon="0.73932">
        <ele>55.2</ele>
        <time>2024-01-09T14:37:13+01:00</time>
      </trkpt>
      <trkpt lat="44.17681" lon="0.73919">
        <ele>55.5</ele>
        <time>2024-01-09T14:37:22+01:00</time>
      </trkpt>
      <trkpt lat="44.17682" lon="0.73902">
        <ele>55.6</ele>
        <time>2024-01-09T14:37:33+01:00</time>
      </trkpt>
      <trkpt lat="44.17685" lon="0.73887">
        <ele>55.6</ele>
        <time>2024-01-09T14:37:47+01:00</time>
      </trkpt>
      <trkpt lat="44.17693" lon="0.73891">
        <ele>55.9</ele>
        <time>2024-01-09T14:37:58+01:00</time>
      </trkpt>
      <trkpt lat="44.17706" lon="0.7389">
        <ele>56</ele>
        <time>2024-01-09T14:38:08+01:00</time>
      </trkpt>
      <trkpt lat="44.17719" lon="0.73885">
        <ele>56</ele>
        <time>2024-01-09T14:38:18+01:00</time>
      </trkpt>
      <trkpt lat="44.17743" lon="0.73874">
        <ele>56</ele>
        <time>2024-01-09T14:38:37+01:00</time>
      </trkpt>
      <trkpt lat="44.17755" lon="0.73869">
        <ele>56</ele>
        <time>2024-01-09T14:38:47+01:00</time>
      </trkpt>
      <trkpt lat="44.17781" lon="0.73858">
        <ele>56</ele>
        <time>2024-01-09T14:39:07+01:00</time>
      </trkpt>
      <trkpt lat="44.17793" lon="0.73852">
        <ele>56</ele>
        <time>2024-01-09T14:39:16+01:00</time>
      </trkpt>
      <trkpt lat="44.17806" lon="0.73844">
        <ele>56</ele>
        <time>2024-01-09T14:39:26+01:00</time>
      </trkpt>
      <trkpt lat="44.17819" lon="0.73835">
        <ele>56.5</ele>
        <time>2024-01-09T14:39:36+01:00</time>
      </trkpt>
      <trkpt lat="44.17831" lon="0.7382">
        <ele>56.5</ele>
        <time>2024-01-09T14:39:46+01:00</time>
      </trkpt>
      <trkpt lat="44.17838" lon="0.73807">
        <ele>56.2</ele>
        <time>2024-01-09T14:39:56+01:00</time>
      </trkpt>
      <trkpt lat="44.17847" lon="0.73794">
        <ele>56.5</ele>
        <time>2024-01-09T14:40:05+01:00</time>
      </trkpt>
      <trkpt lat="44.17856" lon="0.73785">
        <ele>56.8</ele>
        <time>2024-01-09T14:40:15+01:00</time>
      </trkpt>
      <trkpt lat="44.17898" lon="0.73757">
        <ele>55.6</ele>
        <time>2024-01-09T14:41:05+01:00</time>
      </trkpt>
      <trkpt lat="44.17906" lon="0.73756">
        <ele>55.8</ele>
        <time>2024-01-09T14:41:20+01:00</time>
      </trkpt>
      <trkpt lat="44.17913" lon="0.73757">
        <ele>55.9</ele>
        <time>2024-01-09T14:42:00+01:00</time>
      </trkpt>
      <trkpt lat="44.17921" lon="0.73761">
        <ele>56.1</ele>
        <time>2024-01-09T14:42:20+01:00</time>
      </trkpt>
      <trkpt lat="44.17931" lon="0.73769">
        <ele>56.4</ele>
        <time>2024-01-09T14:42:30+01:00</time>
      </trkpt>
      <trkpt lat="44.17955" lon="0.7378">
        <ele>57</ele>
        <time>2024-01-09T14:42:50+01:00</time>
      </trkpt>
      <trkpt lat="44.17965" lon="0.73786">
        <ele>57.2</ele>
        <time>2024-01-09T14:42:59+01:00</time>
      </trkpt>
      <trkpt lat="44.17978" lon="0.73787">
        <ele>57.3</ele>
        <time>2024-01-09T14:43:10+01:00</time>
      </trkpt>
      <trkpt lat="44.17992" lon="0.73789">
        <ele>57.1</ele>
        <time>2024-01-09T14:43:20+01:00</time>
      </trkpt>
      <trkpt lat="44.18004" lon="0.73785">
        <ele>57.2</ele>
        <time>2024-01-09T14:43:30+01:00</time>
      </trkpt>
      <trkpt lat="44.18012" lon="0.73782">
        <ele>57.4</ele>
        <time>2024-01-09T14:43:44+01:00</time>
      </trkpt>
      <trkpt lat="44.18024" lon="0.73769">
        <ele>57.8</ele>
        <time>2024-01-09T14:43:55+01:00</time>
      </trkpt>
      <trkpt lat="44.18033" lon="0.73761">
        <ele>58.4</ele>
        <time>2024-01-09T14:45:30+01:00</time>
      </trkpt>
      <trkpt lat="44.18043" lon="0.73761">
        <ele>59.3</ele>
        <time>2024-01-09T14:45:45+01:00</time>
      </trkpt>
      <trkpt lat="44.18055" lon="0.73765">
        <ele>60.5</ele>
        <time>2024-01-09T14:45:54+01:00</time>
      </trkpt>
      <trkpt lat="44.18081" lon="0.73775">
        <ele>61.8</ele>
        <time>2024-01-09T14:46:15+01:00</time>
      </trkpt>
      <trkpt lat="44.18091" lon="0.73777">
        <ele>62.5</ele>
        <time>2024-01-09T14:46:25+01:00</time>
      </trkpt>
      <trkpt lat="44.18105" lon="0.73776">
        <ele>63.5</ele>
        <time>2024-01-09T14:46:35+01:00</time>
      </trkpt>
      <trkpt lat="44.18172" lon="0.73734">
        <ele>65.8</ele>
        <time>2024-01-09T14:47:34+01:00</time>
      </trkpt>
      <trkpt lat="44.18185" lon="0.73725">
        <ele>66.3</ele>
        <time>2024-01-09T14:50:23+01:00</time>
      </trkpt>
      <trkpt lat="44.18199" lon="0.73712">
        <ele>66.3</ele>
        <time>2024-01-09T14:53:33+01:00</time>
      </trkpt>
      <trkpt lat="44.18222" lon="0.73697">
        <ele>66.4</ele>
        <time>2024-01-09T14:53:53+01:00</time>
      </trkpt>
      <trkpt lat="44.18234" lon="0.73689">
        <ele>67.2</ele>
        <time>2024-01-09T14:54:03+01:00</time>
      </trkpt>
      <trkpt lat="44.18254" lon="0.7367">
        <ele>67</ele>
        <time>2024-01-09T14:54:22+01:00</time>
      </trkpt>
      <trkpt lat="44.18265" lon="0.73661">
        <ele>67.8</ele>
        <time>2024-01-09T14:54:31+01:00</time>
      </trkpt>
      <trkpt lat="44.18275" lon="0.73655">
        <ele>68.5</ele>
        <time>2024-01-09T14:54:41+01:00</time>
      </trkpt>
      <trkpt lat="44.18285" lon="0.73645">
        <ele>68.4</ele>
        <time>2024-01-09T14:54:51+01:00</time>
      </trkpt>
      <trkpt lat="44.18307" lon="0.73629">
        <ele>69.5</ele>
        <time>2024-01-09T14:55:11+01:00</time>
      </trkpt>
      <trkpt lat="44.1833" lon="0.7361">
        <ele>69.7</ele>
        <time>2024-01-09T14:55:31+01:00</time>
      </trkpt>
      <trkpt lat="44.18341" lon="0.73602">
        <ele>70.1</ele>
        <time>2024-01-09T14:55:41+01:00</time>
      </trkpt>
      <trkpt lat="44.18366" lon="0.73594">
        <ele>71.2</ele>
        <time>2024-01-09T14:56:01+01:00</time>
      </trkpt>
      <trkpt lat="44.18376" lon="0.73598">
        <ele>71.5</ele>
        <time>2024-01-09T14:56:11+01:00</time>
      </trkpt>
      <trkpt lat="44.1839" lon="0.73606">
        <ele>71.9</ele>
        <time>2024-01-09T14:56:20+01:00</time>
      </trkpt>
      <trkpt lat="44.18403" lon="0.73618">
        <ele>72.9</ele>
        <time>2024-01-09T14:56:31+01:00</time>
      </trkpt>
      <trkpt lat="44.18436" lon="0.73643">
        <ele>74.2</ele>
        <time>2024-01-09T14:57:02+01:00</time>
      </trkpt>
      <trkpt lat="44.18438" lon="0.73652">
        <ele>74.8</ele>
        <time>2024-01-09T14:57:37+01:00</time>
      </trkpt>
      <trkpt lat="44.18435" lon="0.73668">
        <ele>75.8</ele>
        <time>2024-01-09T14:58:13+01:00</time>
      </trkpt>
      <trkpt lat="44.18439" lon="0.73683">
        <ele>77.5</ele>
        <time>2024-01-09T14:58:22+01:00</time>
      </trkpt>
      <trkpt lat="44.18443" lon="0.73745">
        <ele>82.5</ele>
        <time>2024-01-09T14:59:02+01:00</time>
      </trkpt>
      <trkpt lat="44.18442" lon="0.73759">
        <ele>83.9</ele>
        <time>2024-01-09T14:59:12+01:00</time>
      </trkpt>
      <trkpt lat="44.18443" lon="0.7379">
        <ele>86.8</ele>
        <time>2024-01-09T14:59:32+01:00</time>
      </trkpt>
      <trkpt lat="44.18438" lon="0.73821">
        <ele>89.3</ele>
        <time>2024-01-09T14:59:56+01:00</time>
      </trkpt>
      <trkpt lat="44.18432" lon="0.73848">
        <ele>92</ele>
        <time>2024-01-09T15:00:16+01:00</time>
      </trkpt>
      <trkpt lat="44.18428" lon="0.73863">
        <ele>93.3</ele>
        <time>2024-01-09T15:00:25+01:00</time>
      </trkpt>
      <trkpt lat="44.18425" lon="0.73877">
        <ele>93.7</ele>
        <time>2024-01-09T15:00:40+01:00</time>
      </trkpt>
      <trkpt lat="44.18423" lon="0.73884">
        <ele>93.6</ele>
        <time>2024-01-09T15:04:04+01:00</time>
      </trkpt>
      <trkpt lat="44.18421" lon="0.739">
        <ele>94.4</ele>
        <time>2024-01-09T15:04:25+01:00</time>
      </trkpt>
      <trkpt lat="44.18433" lon="0.73908">
        <ele>96.7</ele>
        <time>2024-01-09T15:04:35+01:00</time>
      </trkpt>
      <trkpt lat="44.18454" lon="0.7392">
        <ele>101.2</ele>
        <time>2024-01-09T15:05:05+01:00</time>
      </trkpt>
      <trkpt lat="44.18467" lon="0.73929">
        <ele>104.4</ele>
        <time>2024-01-09T15:05:20+01:00</time>
      </trkpt>
      <trkpt lat="44.18477" lon="0.73934">
        <ele>106.1</ele>
        <time>2024-01-09T15:05:34+01:00</time>
      </trkpt>
      <trkpt lat="44.18488" lon="0.7394">
        <ele>107.3</ele>
        <time>2024-01-09T15:05:50+01:00</time>
      </trkpt>
      <trkpt lat="44.18497" lon="0.73946">
        <ele>108</ele>
        <time>2024-01-09T15:06:00+01:00</time>
      </trkpt>
      <trkpt lat="44.18512" lon="0.7395">
        <ele>110.6</ele>
        <time>2024-01-09T15:06:19+01:00</time>
      </trkpt>
      <trkpt lat="44.18538" lon="0.73954">
        <ele>115</ele>
        <time>2024-01-09T15:06:53+01:00</time>
      </trkpt>
      <trkpt lat="44.1855" lon="0.73962">
        <ele>117.7</ele>
        <time>2024-01-09T15:07:04+01:00</time>
      </trkpt>
      <trkpt lat="44.18561" lon="0.73967">
        <ele>118.8</ele>
        <time>2024-01-09T15:07:19+01:00</time>
      </trkpt>
      <trkpt lat="44.18574" lon="0.73975">
        <ele>119.9</ele>
        <time>2024-01-09T15:07:33+01:00</time>
      </trkpt>
      <trkpt lat="44.18586" lon="0.73982">
        <ele>121.8</ele>
        <time>2024-01-09T15:07:48+01:00</time>
      </trkpt>
      <trkpt lat="44.18599" lon="0.7399">
        <ele>123.6</ele>
        <time>2024-01-09T15:08:03+01:00</time>
      </trkpt>
      <trkpt lat="44.18627" lon="0.74001">
        <ele>126.2</ele>
        <time>2024-01-09T15:08:37+01:00</time>
      </trkpt>
      <trkpt lat="44.18649" lon="0.74011">
        <ele>128.3</ele>
        <time>2024-01-09T15:09:02+01:00</time>
      </trkpt>
      <trkpt lat="44.18658" lon="0.74016">
        <ele>129.1</ele>
        <time>2024-01-09T15:09:12+01:00</time>
      </trkpt>
      <trkpt lat="44.1867" lon="0.74024">
        <ele>130.4</ele>
        <time>2024-01-09T15:09:27+01:00</time>
      </trkpt>
      <trkpt lat="44.18681" lon="0.74024">
        <ele>130.9</ele>
        <time>2024-01-09T15:09:37+01:00</time>
      </trkpt>
      <trkpt lat="44.18692" lon="0.74023">
        <ele>131.2</ele>
        <time>2024-01-09T15:09:47+01:00</time>
      </trkpt>
      <trkpt lat="44.18705" lon="0.74019">
        <ele>131.9</ele>
        <time>2024-01-09T15:10:32+01:00</time>
      </trkpt>
      <trkpt lat="44.18715" lon="0.74013">
        <ele>132.4</ele>
        <time>2024-01-09T15:10:42+01:00</time>
      </trkpt>
      <trkpt lat="44.18724" lon="0.7401">
        <ele>133.2</ele>
        <time>2024-01-09T15:10:51+01:00</time>
      </trkpt>
      <trkpt lat="44.18745" lon="0.73999">
        <ele>135.4</ele>
        <time>2024-01-09T15:11:12+01:00</time>
      </trkpt>
      <trkpt lat="44.18756" lon="0.73993">
        <ele>136.5</ele>
        <time>2024-01-09T15:11:27+01:00</time>
      </trkpt>
      <trkpt lat="44.18768" lon="0.7399">
        <ele>137</ele>
        <time>2024-01-09T15:11:37+01:00</time>
      </trkpt>
      <trkpt lat="44.18788" lon="0.7398">
        <ele>138.6</ele>
        <time>2024-01-09T15:12:17+01:00</time>
      </trkpt>
      <trkpt lat="44.188" lon="0.73971">
        <ele>141.3</ele>
        <time>2024-01-09T15:12:37+01:00</time>
      </trkpt>
      <trkpt lat="44.18812" lon="0.7397">
        <ele>143.4</ele>
        <time>2024-01-09T15:12:52+01:00</time>
      </trkpt>
      <trkpt lat="44.18822" lon="0.73967">
        <ele>145.3</ele>
        <time>2024-01-09T15:13:07+01:00</time>
      </trkpt>
      <trkpt lat="44.18837" lon="0.73967">
        <ele>147.3</ele>
        <time>2024-01-09T15:13:21+01:00</time>
      </trkpt>
      <trkpt lat="44.18848" lon="0.73972">
        <ele>148.8</ele>
        <time>2024-01-09T15:13:32+01:00</time>
      </trkpt>
      <trkpt lat="44.18858" lon="0.73978">
        <ele>149.1</ele>
        <time>2024-01-09T15:13:46+01:00</time>
      </trkpt>
      <trkpt lat="44.18865" lon="0.73987">
        <ele>148.7</ele>
        <time>2024-01-09T15:14:06+01:00</time>
      </trkpt>
      <trkpt lat="44.18873" lon="0.73995">
        <ele>149.2</ele>
        <time>2024-01-09T15:14:46+01:00</time>
      </trkpt>
      <trkpt lat="44.1888" lon="0.74003">
        <ele>149.8</ele>
        <time>2024-01-09T15:14:56+01:00</time>
      </trkpt>
      <trkpt lat="44.18894" lon="0.74023">
        <ele>149.7</ele>
        <time>2024-01-09T15:15:16+01:00</time>
      </trkpt>
      <trkpt lat="44.18901" lon="0.7404">
        <ele>148.5</ele>
        <time>2024-01-09T15:15:26+01:00</time>
      </trkpt>
      <trkpt lat="44.1891" lon="0.74055">
        <ele>149.3</ele>
        <time>2024-01-09T15:15:36+01:00</time>
      </trkpt>
      <trkpt lat="44.18919" lon="0.74064">
        <ele>150.7</ele>
        <time>2024-01-09T15:15:46+01:00</time>
      </trkpt>
      <trkpt lat="44.18931" lon="0.74066">
        <ele>151.3</ele>
        <time>2024-01-09T15:15:56+01:00</time>
      </trkpt>
      <trkpt lat="44.18943" lon="0.74065">
        <ele>152.5</ele>
        <time>2024-01-09T15:16:06+01:00</time>
      </trkpt>
      <trkpt lat="44.18956" lon="0.74064">
        <ele>152.8</ele>
        <time>2024-01-09T15:16:16+01:00</time>
      </trkpt>
      <trkpt lat="44.18966" lon="0.74064">
        <ele>152.8</ele>
        <time>2024-01-09T15:16:26+01:00</time>
      </trkpt>
      <trkpt lat="44.18975" lon="0.74063">
        <ele>153</ele>
        <time>2024-01-09T15:16:36+01:00</time>
      </trkpt>
      <trkpt lat="44.18992" lon="0.74061">
        <ele>153.5</ele>
        <time>2024-01-09T15:16:56+01:00</time>
      </trkpt>
      <trkpt lat="44.19004" lon="0.74061">
        <ele>153.6</ele>
        <time>2024-01-09T15:17:06+01:00</time>
      </trkpt>
      <trkpt lat="44.19018" lon="0.74059">
        <ele>153.9</ele>
        <time>2024-01-09T15:17:17+01:00</time>
      </trkpt>
      <trkpt lat="44.19025" lon="0.74065">
        <ele>153.6</ele>
        <time>2024-01-09T15:17:57+01:00</time>
      </trkpt>
      <trkpt lat="44.19046" lon="0.74084">
        <ele>152.2</ele>
      </trkpt>
      <trkpt lat="44.19052" lon="0.7409">
        <ele>150</ele>
        <time>2024-01-09T15:18:17+01:00</time>
      </trkpt>
      <trkpt lat="44.19061" lon="0.74093">
        <ele>149.4</ele>
        <time>2024-01-09T15:18:27+01:00</time>
      </trkpt>
      <trkpt lat="44.19071" lon="0.74096">
        <ele>149.1</ele>
        <time>2024-01-09T15:18:41+01:00</time>
      </trkpt>
      <trkpt lat="44.19086" lon="0.74104">
        <ele>148.5</ele>
        <time>2024-01-09T15:19:01+01:00</time>
      </trkpt>
      <trkpt lat="44.19096" lon="0.74111">
        <ele>149.7</ele>
      </trkpt>
      <trkpt lat="44.19103" lon="0.74115">
        <ele>149.9</ele>
        <time>2024-01-09T15:19:11+01:00</time>
      </trkpt>
      <trkpt lat="44.19111" lon="0.74121">
        <ele>149.5</ele>
        <time>2024-01-09T15:19:21+01:00</time>
      </trkpt>
      <trkpt lat="44.19119" lon="0.74126">
        <ele>149.5</ele>
        <time>2024-01-09T15:19:31+01:00</time>
      </trkpt>
      <trkpt lat="44.19141" lon="0.74139">
        <ele>154.1</ele>
        <time>2024-01-09T15:19:51+01:00</time>
      </trkpt>
      <trkpt lat="44.19149" lon="0.74145">
        <ele>151.8</ele>
        <time>2024-01-09T15:20:01+01:00</time>
      </trkpt>
      <trkpt lat="44.19159" lon="0.74152">
        <ele>150.1</ele>
        <time>2024-01-09T15:20:11+01:00</time>
      </trkpt>
      <trkpt lat="44.19168" lon="0.74158">
        <ele>149.8</ele>
        <time>2024-01-09T15:20:21+01:00</time>
      </trkpt>
      <trkpt lat="44.19179" lon="0.74161">
        <ele>150.9</ele>
        <time>2024-01-09T15:20:31+01:00</time>
      </trkpt>
      <trkpt lat="44.19189" lon="0.74164">
        <ele>152.2</ele>
        <time>2024-01-09T15:20:40+01:00</time>
      </trkpt>
      <trkpt lat="44.19201" lon="0.74167">
        <ele>152.8</ele>
        <time>2024-01-09T15:20:50+01:00</time>
      </trkpt>
      <trkpt lat="44.19211" lon="0.74171">
        <ele>151.3</ele>
        <time>2024-01-09T15:21:00+01:00</time>
      </trkpt>
      <trkpt lat="44.19222" lon="0.74173">
        <ele>150.6</ele>
        <time>2024-01-09T15:21:10+01:00</time>
      </trkpt>
      <trkpt lat="44.19258" lon="0.74192">
        <ele>149.3</ele>
      </trkpt>
      <trkpt lat="44.19269" lon="0.74197">
        <ele>150.3</ele>
        <time>2024-01-09T15:23:05+01:00</time>
      </trkpt>
      <trkpt lat="44.19278" lon="0.74202">
        <ele>150.9</ele>
        <time>2024-01-09T15:24:16+01:00</time>
      </trkpt>
      <trkpt lat="44.19285" lon="0.74211">
        <ele>149.4</ele>
        <time>2024-01-09T15:26:41+01:00</time>
      </trkpt>
      <trkpt lat="44.19298" lon="0.74217">
        <ele>150.7</ele>
        <time>2024-01-09T15:26:56+01:00</time>
      </trkpt>
      <trkpt lat="44.19305" lon="0.74221">
        <ele>152</ele>
        <time>2024-01-09T15:27:21+01:00</time>
      </trkpt>
      <trkpt lat="44.19321" lon="0.74238">
        <ele>150.9</ele>
      </trkpt>
      <trkpt lat="44.19329" lon="0.74236">
        <ele>151</ele>
      </trkpt>
      <trkpt lat="44.19341" lon="0.74217">
        <ele>148.7</ele>
        <time>2024-01-09T15:27:51+01:00</time>
      </trkpt>
      <trkpt lat="44.1935" lon="0.74187">
        <ele>148.9</ele>
        <time>2024-01-09T15:28:11+01:00</time>
      </trkpt>
      <trkpt lat="44.19356" lon="0.74175">
        <ele>149.4</ele>
        <time>2024-01-09T15:28:21+01:00</time>
      </trkpt>
      <trkpt lat="44.1936" lon="0.74161">
        <ele>151.1</ele>
        <time>2024-01-09T15:28:31+01:00</time>
      </trkpt>
      <trkpt lat="44.19379" lon="0.7412">
        <ele>151.3</ele>
        <time>2024-01-09T15:29:01+01:00</time>
      </trkpt>
      <trkpt lat="44.19393" lon="0.74094">
        <ele>151.7</ele>
        <time>2024-01-09T15:29:21+01:00</time>
      </trkpt>
      <trkpt lat="44.19399" lon="0.7408">
        <ele>150.4</ele>
        <time>2024-01-09T15:29:30+01:00</time>
      </trkpt>
      <trkpt lat="44.19403" lon="0.74066">
        <ele>151.1</ele>
        <time>2024-01-09T15:29:41+01:00</time>
      </trkpt>
      <trkpt lat="44.1941" lon="0.74056">
        <ele>151.7</ele>
        <time>2024-01-09T15:29:51+01:00</time>
      </trkpt>
      <trkpt lat="44.19418" lon="0.7405">
        <ele>151.2</ele>
        <time>2024-01-09T15:30:06+01:00</time>
      </trkpt>
      <trkpt lat="44.19427" lon="0.74043">
        <ele>150.5</ele>
        <time>2024-01-09T15:30:31+01:00</time>
      </trkpt>
      <trkpt lat="44.19447" lon="0.74034">
        <ele>149.9</ele>
        <time>2024-01-09T15:30:56+01:00</time>
      </trkpt>
      <trkpt lat="44.19456" lon="0.74029">
        <ele>151.5</ele>
        <time>2024-01-09T15:31:06+01:00</time>
      </trkpt>
      <trkpt lat="44.19466" lon="0.74027">
        <ele>152</ele>
        <time>2024-01-09T15:31:16+01:00</time>
      </trkpt>
      <trkpt lat="44.19476" lon="0.74026">
        <ele>152.1</ele>
        <time>2024-01-09T15:31:41+01:00</time>
      </trkpt>
      <trkpt lat="44.19488" lon="0.7403">
        <ele>151.3</ele>
        <time>2024-01-09T15:31:51+01:00</time>
      </trkpt>
      <trkpt lat="44.19498" lon="0.74036">
        <ele>149.2</ele>
        <time>2024-01-09T15:32:01+01:00</time>
      </trkpt>
      <trkpt lat="44.1951" lon="0.74036">
        <ele>149.7</ele>
        <time>2024-01-09T15:32:11+01:00</time>
      </trkpt>
      <trkpt lat="44.19523" lon="0.74042">
        <ele>149.8</ele>
        <time>2024-01-09T15:32:26+01:00</time>
      </trkpt>
      <trkpt lat="44.19541" lon="0.74054">
        <ele>150.1</ele>
        <time>2024-01-09T15:32:46+01:00</time>
      </trkpt>
      <trkpt lat="44.19564" lon="0.74068">
        <ele>149.5</ele>
      </trkpt>
      <trkpt lat="44.19569" lon="0.74067">
        <ele>150.3</ele>
        <time>2024-01-09T15:33:16+01:00</time>
      </trkpt>
      <trkpt lat="44.19576" lon="0.74061">
        <ele>151.8</ele>
        <time>2024-01-09T15:33:31+01:00</time>
      </trkpt>
      <trkpt lat="44.19584" lon="0.74049">
        <ele>153.3</ele>
        <time>2024-01-09T15:33:41+01:00</time>
      </trkpt>
      <trkpt lat="44.19594" lon="0.74042">
        <ele>154.3</ele>
        <time>2024-01-09T15:33:50+01:00</time>
      </trkpt>
      <trkpt lat="44.19616" lon="0.74033">
        <ele>156</ele>
        <time>2024-01-09T15:36:07+01:00</time>
      </trkpt>
      <trkpt lat="44.19625" lon="0.74028">
        <ele>156.5</ele>
        <time>2024-01-09T15:36:16+01:00</time>
      </trkpt>
      <trkpt lat="44.19635" lon="0.74018">
        <ele>157.2</ele>
        <time>2024-01-09T15:36:26+01:00</time>
      </trkpt>
      <trkpt lat="44.19644" lon="0.74011">
        <ele>157.7</ele>
        <time>2024-01-09T15:36:36+01:00</time>
      </trkpt>
      <trkpt lat="44.19664" lon="0.7399">
        <ele>158</ele>
        <time>2024-01-09T15:37:21+01:00</time>
      </trkpt>
      <trkpt lat="44.19677" lon="0.7398">
        <ele>157.6</ele>
        <time>2024-01-09T15:37:36+01:00</time>
      </trkpt>
      <trkpt lat="44.19684" lon="0.7397">
        <ele>157.3</ele>
        <time>2024-01-09T15:38:01+01:00</time>
      </trkpt>
      <trkpt lat="44.19692" lon="0.73979">
        <ele>157.1</ele>
        <time>2024-01-09T15:38:15+01:00</time>
      </trkpt>
      <trkpt lat="44.19697" lon="0.73996">
        <ele>156.8</ele>
        <time>2024-01-09T15:38:30+01:00</time>
      </trkpt>
      <trkpt lat="44.19703" lon="0.74012">
        <ele>156.5</ele>
        <time>2024-01-09T15:38:39+01:00</time>
      </trkpt>
      <trkpt lat="44.1972" lon="0.74057">
        <ele>157.1</ele>
        <time>2024-01-09T15:39:10+01:00</time>
      </trkpt>
      <trkpt lat="44.19726" lon="0.74074">
        <ele>157.5</ele>
        <time>2024-01-09T15:39:20+01:00</time>
      </trkpt>
      <trkpt lat="44.19738" lon="0.74102">
        <ele>157.8</ele>
        <time>2024-01-09T15:39:39+01:00</time>
      </trkpt>
      <trkpt lat="44.19756" lon="0.74127">
        <ele>158.6</ele>
        <time>2024-01-09T15:39:59+01:00</time>
      </trkpt>
      <trkpt lat="44.19762" lon="0.74138">
        <ele>159</ele>
        <time>2024-01-09T15:40:19+01:00</time>
      </trkpt>
      <trkpt lat="44.19773" lon="0.74151">
        <ele>159.4</ele>
        <time>2024-01-09T15:40:29+01:00</time>
      </trkpt>
      <trkpt lat="44.19782" lon="0.74162">
        <ele>159.7</ele>
        <time>2024-01-09T15:40:39+01:00</time>
      </trkpt>
      <trkpt lat="44.19798" lon="0.74183">
        <ele>159.9</ele>
      </trkpt>
      <trkpt lat="44.19803" lon="0.74192">
        <ele>160</ele>
        <time>2024-01-09T15:40:58+01:00</time>
      </trkpt>
      <trkpt lat="44.19809" lon="0.742">
        <ele>160.2</ele>
      </trkpt>
      <trkpt lat="44.19815" lon="0.74206">
        <ele>160.3</ele>
        <time>2024-01-09T15:41:18+01:00</time>
      </trkpt>
      <trkpt lat="44.19834" lon="0.74229">
        <ele>160</ele>
        <time>2024-01-09T15:41:37+01:00</time>
      </trkpt>
      <trkpt lat="44.19843" lon="0.74244">
        <ele>159.7</ele>
      </trkpt>
      <trkpt lat="44.19863" lon="0.74275">
        <ele>157.1</ele>
        <time>2024-01-09T15:42:21+01:00</time>
      </trkpt>
      <trkpt lat="44.19879" lon="0.74305">
        <ele>155.7</ele>
        <time>2024-01-09T15:42:45+01:00</time>
      </trkpt>
      <trkpt lat="44.19884" lon="0.74318">
        <ele>154.3</ele>
        <time>2024-01-09T15:42:54+01:00</time>
      </trkpt>
      <trkpt lat="44.1989" lon="0.7433">
        <ele>153</ele>
        <time>2024-01-09T15:43:20+01:00</time>
      </trkpt>
      <trkpt lat="44.19891" lon="0.74343">
        <ele>152.5</ele>
      </trkpt>
      <trkpt lat="44.19893" lon="0.7436">
        <ele>151.5</ele>
        <time>2024-01-09T15:43:50+01:00</time>
      </trkpt>
      <trkpt lat="44.19892" lon="0.74374">
        <ele>151.5</ele>
        <time>2024-01-09T15:44:00+01:00</time>
      </trkpt>
      <trkpt lat="44.19887" lon="0.74412">
        <ele>151.3</ele>
        <time>2024-01-09T15:44:25+01:00</time>
      </trkpt>
      <trkpt lat="44.19887" lon="0.7443">
        <ele>151.1</ele>
        <time>2024-01-09T15:44:35+01:00</time>
      </trkpt>
      <trkpt lat="44.19891" lon="0.74446">
        <ele>150.2</ele>
        <time>2024-01-09T15:44:45+01:00</time>
      </trkpt>
      <trkpt lat="44.19897" lon="0.74462">
        <ele>148.6</ele>
        <time>2024-01-09T15:44:55+01:00</time>
      </trkpt>
      <trkpt lat="44.19911" lon="0.74491">
        <ele>148.1</ele>
        <time>2024-01-09T15:45:14+01:00</time>
      </trkpt>
      <trkpt lat="44.19918" lon="0.74502">
        <ele>148.8</ele>
        <time>2024-01-09T15:45:24+01:00</time>
      </trkpt>
      <trkpt lat="44.19928" lon="0.74514">
        <ele>148.2</ele>
        <time>2024-01-09T15:45:34+01:00</time>
      </trkpt>
      <trkpt lat="44.19937" lon="0.74524">
        <ele>148.7</ele>
        <time>2024-01-09T15:45:43+01:00</time>
      </trkpt>
      <trkpt lat="44.19945" lon="0.74537">
        <ele>149</ele>
        <time>2024-01-09T15:45:53+01:00</time>
      </trkpt>
      <trkpt lat="44.19953" lon="0.74552">
        <ele>146.9</ele>
        <time>2024-01-09T15:46:03+01:00</time>
      </trkpt>
      <trkpt lat="44.19956" lon="0.74567">
        <ele>146.6</ele>
        <time>2024-01-09T15:46:13+01:00</time>
      </trkpt>
      <trkpt lat="44.19961" lon="0.74581">
        <ele>146.4</ele>
        <time>2024-01-09T15:46:23+01:00</time>
      </trkpt>
      <trkpt lat="44.19964" lon="0.74596">
        <ele>146.7</ele>
        <time>2024-01-09T15:46:32+01:00</time>
      </trkpt>
      <trkpt lat="44.1997" lon="0.74608">
        <ele>146.9</ele>
        <time>2024-01-09T15:46:42+01:00</time>
      </trkpt>
      <trkpt lat="44.19985" lon="0.74631">
        <ele>148.8</ele>
        <time>2024-01-09T15:47:01+01:00</time>
      </trkpt>
      <trkpt lat="44.20002" lon="0.74653">
        <ele>150.5</ele>
        <time>2024-01-09T15:47:21+01:00</time>
      </trkpt>
      <trkpt lat="44.20011" lon="0.74664">
        <ele>150.9</ele>
        <time>2024-01-09T15:47:31+01:00</time>
      </trkpt>
      <trkpt lat="44.20017" lon="0.74676">
        <ele>151.4</ele>
        <time>2024-01-09T15:48:05+01:00</time>
      </trkpt>
      <trkpt lat="44.20025" lon="0.74687">
        <ele>151.8</ele>
        <time>2024-01-09T15:48:15+01:00</time>
      </trkpt>
      <trkpt lat="44.20034" lon="0.74696">
        <ele>152.1</ele>
        <time>2024-01-09T15:48:45+01:00</time>
      </trkpt>
      <trkpt lat="44.20042" lon="0.74708">
        <ele>153</ele>
        <time>2024-01-09T15:49:05+01:00</time>
      </trkpt>
      <trkpt lat="44.20065" lon="0.74735">
        <ele>155.1</ele>
        <time>2024-01-09T15:49:31+01:00</time>
      </trkpt>
      <trkpt lat="44.20086" lon="0.74754">
        <ele>156.1</ele>
        <time>2024-01-09T15:49:51+01:00</time>
      </trkpt>
      <trkpt lat="44.20116" lon="0.74789">
        <ele>156.1</ele>
        <time>2024-01-09T15:50:26+01:00</time>
      </trkpt>
      <trkpt lat="44.20148" lon="0.74833">
        <ele>156.6</ele>
        <time>2024-01-09T15:51:05+01:00</time>
      </trkpt>
      <trkpt lat="44.20155" lon="0.74844">
        <ele>156.8</ele>
        <time>2024-01-09T15:51:15+01:00</time>
      </trkpt>
      <trkpt lat="44.20159" lon="0.74857">
        <ele>157.5</ele>
        <time>2024-01-09T15:51:24+01:00</time>
      </trkpt>
      <trkpt lat="44.20162" lon="0.74871">
        <ele>158.2</ele>
        <time>2024-01-09T15:51:34+01:00</time>
      </trkpt>
      <trkpt lat="44.20162" lon="0.74887">
        <ele>158.8</ele>
        <time>2024-01-09T15:51:44+01:00</time>
      </trkpt>
      <trkpt lat="44.20158" lon="0.74904">
        <ele>159.2</ele>
        <time>2024-01-09T15:51:53+01:00</time>
      </trkpt>
      <trkpt lat="44.20151" lon="0.74919">
        <ele>159.5</ele>
        <time>2024-01-09T15:52:04+01:00</time>
      </trkpt>
      <trkpt lat="44.20136" lon="0.74943">
        <ele>160</ele>
        <time>2024-01-09T15:52:23+01:00</time>
      </trkpt>
      <trkpt lat="44.20129" lon="0.74955">
        <ele>160</ele>
        <time>2024-01-09T15:52:32+01:00</time>
      </trkpt>
      <trkpt lat="44.20122" lon="0.74966">
        <ele>160</ele>
        <time>2024-01-09T15:52:42+01:00</time>
      </trkpt>
      <trkpt lat="44.20114" lon="0.74979">
        <ele>160</ele>
        <time>2024-01-09T15:52:52+01:00</time>
      </trkpt>
      <trkpt lat="44.20107" lon="0.74993">
        <ele>160.1</ele>
        <time>2024-01-09T15:53:01+01:00</time>
      </trkpt>
      <trkpt lat="44.20099" lon="0.75003">
        <ele>160.5</ele>
        <time>2024-01-09T15:53:11+01:00</time>
      </trkpt>
      <trkpt lat="44.20084" lon="0.75032">
        <ele>162</ele>
        <time>2024-01-09T15:53:40+01:00</time>
      </trkpt>
      <trkpt lat="44.20076" lon="0.75043">
        <ele>162.4</ele>
        <time>2024-01-09T15:53:49+01:00</time>
      </trkpt>
      <trkpt lat="44.20069" lon="0.75056">
        <ele>163</ele>
        <time>2024-01-09T15:53:59+01:00</time>
      </trkpt>
      <trkpt lat="44.20046" lon="0.75096">
        <ele>163.1</ele>
        <time>2024-01-09T15:54:28+01:00</time>
      </trkpt>
      <trkpt lat="44.20037" lon="0.75105">
        <ele>162.8</ele>
        <time>2024-01-09T15:54:38+01:00</time>
      </trkpt>
      <trkpt lat="44.20024" lon="0.75128">
        <ele>162.9</ele>
        <time>2024-01-09T15:54:58+01:00</time>
      </trkpt>
      <trkpt lat="44.20008" lon="0.75153">
        <ele>162.5</ele>
        <time>2024-01-09T15:55:17+01:00</time>
      </trkpt>
      <trkpt lat="44.19993" lon="0.7518">
        <ele>161.7</ele>
        <time>2024-01-09T15:55:37+01:00</time>
      </trkpt>
      <trkpt lat="44.19984" lon="0.75185">
        <ele>161.4</ele>
        <time>2024-01-09T15:55:46+01:00</time>
      </trkpt>
      <trkpt lat="44.19973" lon="0.75194">
        <ele>161</ele>
        <time>2024-01-09T15:55:56+01:00</time>
      </trkpt>
      <trkpt lat="44.19962" lon="0.75201">
        <ele>160.5</ele>
        <time>2024-01-09T15:56:06+01:00</time>
      </trkpt>
      <trkpt lat="44.1994" lon="0.75213">
        <ele>159.8</ele>
        <time>2024-01-09T15:56:26+01:00</time>
      </trkpt>
      <trkpt lat="44.19928" lon="0.75218">
        <ele>159.3</ele>
        <time>2024-01-09T15:56:36+01:00</time>
      </trkpt>
      <trkpt lat="44.19917" lon="0.75224">
        <ele>159</ele>
        <time>2024-01-09T15:56:46+01:00</time>
      </trkpt>
      <trkpt lat="44.19906" lon="0.75226">
        <ele>158.6</ele>
        <time>2024-01-09T15:56:56+01:00</time>
      </trkpt>
      <trkpt lat="44.19859" lon="0.75248">
        <ele>157.7</ele>
        <time>2024-01-09T15:57:36+01:00</time>
      </trkpt>
      <trkpt lat="44.19849" lon="0.7525">
        <ele>157.1</ele>
        <time>2024-01-09T15:57:45+01:00</time>
      </trkpt>
      <trkpt lat="44.19836" lon="0.75255">
        <ele>156.5</ele>
        <time>2024-01-09T15:57:55+01:00</time>
      </trkpt>
      <trkpt lat="44.19825" lon="0.75262">
        <ele>156.4</ele>
        <time>2024-01-09T15:58:04+01:00</time>
      </trkpt>
      <trkpt lat="44.19803" lon="0.75271">
        <ele>155.5</ele>
        <time>2024-01-09T15:58:23+01:00</time>
      </trkpt>
      <trkpt lat="44.19781" lon="0.75285">
        <ele>154.7</ele>
        <time>2024-01-09T15:58:43+01:00</time>
      </trkpt>
      <trkpt lat="44.1977" lon="0.75289">
        <ele>154.4</ele>
        <time>2024-01-09T15:58:53+01:00</time>
      </trkpt>
      <trkpt lat="44.19759" lon="0.75293">
        <ele>154.1</ele>
        <time>2024-01-09T15:59:03+01:00</time>
      </trkpt>
      <trkpt lat="44.19728" lon="0.75318">
        <ele>153.6</ele>
        <time>2024-01-09T15:59:43+01:00</time>
      </trkpt>
      <trkpt lat="44.1972" lon="0.75327">
        <ele>153.6</ele>
        <time>2024-01-09T15:59:53+01:00</time>
      </trkpt>
      <trkpt lat="44.19706" lon="0.75333">
        <ele>152.8</ele>
        <time>2024-01-09T16:00:28+01:00</time>
      </trkpt>
      <trkpt lat="44.19685" lon="0.75351">
        <ele>152.3</ele>
        <time>2024-01-09T16:00:53+01:00</time>
      </trkpt>
      <trkpt lat="44.19652" lon="0.75371">
        <ele>151.3</ele>
        <time>2024-01-09T16:01:33+01:00</time>
      </trkpt>
      <trkpt lat="44.19641" lon="0.75381">
        <ele>151</ele>
        <time>2024-01-09T16:01:43+01:00</time>
      </trkpt>
      <trkpt lat="44.1963" lon="0.75386">
        <ele>151.3</ele>
        <time>2024-01-09T16:01:52+01:00</time>
      </trkpt>
      <trkpt lat="44.19606" lon="0.75391">
        <ele>151.8</ele>
        <time>2024-01-09T16:02:34+01:00</time>
      </trkpt>
      <trkpt lat="44.19584" lon="0.75392">
        <ele>151.7</ele>
        <time>2024-01-09T16:02:53+01:00</time>
      </trkpt>
      <trkpt lat="44.19561" lon="0.754">
        <ele>150.3</ele>
        <time>2024-01-09T16:03:13+01:00</time>
      </trkpt>
      <trkpt lat="44.19538" lon="0.75411">
        <ele>149.9</ele>
        <time>2024-01-09T16:03:33+01:00</time>
      </trkpt>
      <trkpt lat="44.19526" lon="0.75418">
        <ele>148.7</ele>
        <time>2024-01-09T16:03:43+01:00</time>
      </trkpt>
      <trkpt lat="44.19513" lon="0.75423">
        <ele>147.6</ele>
        <time>2024-01-09T16:03:53+01:00</time>
      </trkpt>
      <trkpt lat="44.19504" lon="0.75433">
        <ele>147</ele>
        <time>2024-01-09T16:04:09+01:00</time>
      </trkpt>
      <trkpt lat="44.19492" lon="0.75439">
        <ele>146.3</ele>
        <time>2024-01-09T16:04:19+01:00</time>
      </trkpt>
      <trkpt lat="44.19469" lon="0.75447">
        <ele>145.6</ele>
        <time>2024-01-09T16:04:54+01:00</time>
      </trkpt>
      <trkpt lat="44.19435" lon="0.75459">
        <ele>143.8</ele>
        <time>2024-01-09T16:05:29+01:00</time>
      </trkpt>
      <trkpt lat="44.19417" lon="0.75477">
        <ele>144.7</ele>
        <time>2024-01-09T16:05:48+01:00</time>
      </trkpt>
      <trkpt lat="44.19398" lon="0.75502">
        <ele>144.7</ele>
        <time>2024-01-09T16:06:07+01:00</time>
      </trkpt>
      <trkpt lat="44.19388" lon="0.75509">
        <ele>143.7</ele>
        <time>2024-01-09T16:07:02+01:00</time>
      </trkpt>
      <trkpt lat="44.19368" lon="0.75534">
        <ele>144.4</ele>
        <time>2024-01-09T16:07:21+01:00</time>
      </trkpt>
      <trkpt lat="44.19359" lon="0.75543">
        <ele>144.4</ele>
        <time>2024-01-09T16:07:31+01:00</time>
      </trkpt>
      <trkpt lat="44.19349" lon="0.75551">
        <ele>144.1</ele>
        <time>2024-01-09T16:07:42+01:00</time>
      </trkpt>
      <trkpt lat="44.19336" lon="0.75555">
        <ele>143.2</ele>
        <time>2024-01-09T16:08:07+01:00</time>
      </trkpt>
      <trkpt lat="44.19325" lon="0.75555">
        <ele>142.7</ele>
        <time>2024-01-09T16:08:16+01:00</time>
      </trkpt>
      <trkpt lat="44.19316" lon="0.75557">
        <ele>142.1</ele>
        <time>2024-01-09T16:08:42+01:00</time>
      </trkpt>
      <trkpt lat="44.19291" lon="0.75556">
        <ele>140.7</ele>
        <time>2024-01-09T16:09:17+01:00</time>
      </trkpt>
      <trkpt lat="44.1928" lon="0.75554">
        <ele>140.3</ele>
        <time>2024-01-09T16:09:27+01:00</time>
      </trkpt>
      <trkpt lat="44.19268" lon="0.75558">
        <ele>139.5</ele>
        <time>2024-01-09T16:09:37+01:00</time>
      </trkpt>
      <trkpt lat="44.19258" lon="0.75563">
        <ele>138.5</ele>
        <time>2024-01-09T16:09:47+01:00</time>
      </trkpt>
      <trkpt lat="44.19247" lon="0.75573">
        <ele>136.8</ele>
        <time>2024-01-09T16:09:57+01:00</time>
      </trkpt>
      <trkpt lat="44.1924" lon="0.75587">
        <ele>135</ele>
        <time>2024-01-09T16:10:06+01:00</time>
      </trkpt>
      <trkpt lat="44.19235" lon="0.75602">
        <ele>133.4</ele>
        <time>2024-01-09T16:10:16+01:00</time>
      </trkpt>
      <trkpt lat="44.19227" lon="0.75617">
        <ele>132.8</ele>
        <time>2024-01-09T16:10:26+01:00</time>
      </trkpt>
      <trkpt lat="44.19221" lon="0.75632">
        <ele>131.8</ele>
        <time>2024-01-09T16:10:36+01:00</time>
      </trkpt>
      <trkpt lat="44.19215" lon="0.75665">
        <ele>130.6</ele>
        <time>2024-01-09T16:10:56+01:00</time>
      </trkpt>
      <trkpt lat="44.1921" lon="0.75681">
        <ele>130.9</ele>
        <time>2024-01-09T16:11:06+01:00</time>
      </trkpt>
      <trkpt lat="44.19209" lon="0.757">
        <ele>129.9</ele>
        <time>2024-01-09T16:11:16+01:00</time>
      </trkpt>
      <trkpt lat="44.19203" lon="0.75714">
        <ele>129.7</ele>
        <time>2024-01-09T16:11:26+01:00</time>
      </trkpt>
      <trkpt lat="44.19199" lon="0.75729">
        <ele>128.6</ele>
        <time>2024-01-09T16:11:36+01:00</time>
      </trkpt>
      <trkpt lat="44.19198" lon="0.75747">
        <ele>126.8</ele>
        <time>2024-01-09T16:11:46+01:00</time>
      </trkpt>
      <trkpt lat="44.19192" lon="0.75768">
        <ele>126</ele>
        <time>2024-01-09T16:11:55+01:00</time>
      </trkpt>
      <trkpt lat="44.19181" lon="0.758">
        <ele>124.4</ele>
        <time>2024-01-09T16:12:21+01:00</time>
      </trkpt>
      <trkpt lat="44.1918" lon="0.75795">
        <ele>125.1</ele>
        <time>2024-01-09T16:12:51+01:00</time>
      </trkpt>
      <trkpt lat="44.19168" lon="0.75783">
        <ele>127.3</ele>
        <time>2024-01-09T16:13:16+01:00</time>
      </trkpt>
      <trkpt lat="44.19159" lon="0.75769">
        <ele>128</ele>
        <time>2024-01-09T16:13:36+01:00</time>
      </trkpt>
      <trkpt lat="44.19149" lon="0.75758">
        <ele>128.6</ele>
        <time>2024-01-09T16:13:46+01:00</time>
      </trkpt>
      <trkpt lat="44.19137" lon="0.75752">
        <ele>128.4</ele>
        <time>2024-01-09T16:13:56+01:00</time>
      </trkpt>
      <trkpt lat="44.19127" lon="0.75745">
        <ele>128.4</ele>
        <time>2024-01-09T16:15:11+01:00</time>
      </trkpt>
      <trkpt lat="44.1908" lon="0.75718">
        <ele>125.8</ele>
        <time>2024-01-09T16:15:50+01:00</time>
      </trkpt>
      <trkpt lat="44.19068" lon="0.75706">
        <ele>125</ele>
        <time>2024-01-09T16:16:00+01:00</time>
      </trkpt>
      <trkpt lat="44.19045" lon="0.75688">
        <ele>124.4</ele>
        <time>2024-01-09T16:16:20+01:00</time>
      </trkpt>
      <trkpt lat="44.19032" lon="0.7568">
        <ele>123.9</ele>
        <time>2024-01-09T16:16:30+01:00</time>
      </trkpt>
      <trkpt lat="44.1902" lon="0.75671">
        <ele>124.4</ele>
        <time>2024-01-09T16:16:55+01:00</time>
      </trkpt>
      <trkpt lat="44.19007" lon="0.75664">
        <ele>125.1</ele>
        <time>2024-01-09T16:17:09+01:00</time>
      </trkpt>
      <trkpt lat="44.18987" lon="0.75656">
        <ele>123.4</ele>
        <time>2024-01-09T16:17:30+01:00</time>
      </trkpt>
      <trkpt lat="44.1898" lon="0.7565">
        <ele>123.3</ele>
        <time>2024-01-09T16:18:00+01:00</time>
      </trkpt>
      <trkpt lat="44.18969" lon="0.75643">
        <ele>123.3</ele>
        <time>2024-01-09T16:18:20+01:00</time>
      </trkpt>
      <trkpt lat="44.18961" lon="0.75652">
        <ele>121.5</ele>
        <time>2024-01-09T16:18:35+01:00</time>
      </trkpt>
      <trkpt lat="44.18955" lon="0.75656">
        <ele>120.5</ele>
      </trkpt>
      <trkpt lat="44.18948" lon="0.75671">
        <ele>117.2</ele>
        <time>2024-01-09T16:18:45+01:00</time>
      </trkpt>
      <trkpt lat="44.18934" lon="0.75698">
        <ele>111.7</ele>
        <time>2024-01-09T16:19:05+01:00</time>
      </trkpt>
      <trkpt lat="44.189" lon="0.75765">
        <ele>101.3</ele>
        <time>2024-01-09T16:20:00+01:00</time>
      </trkpt>
      <trkpt lat="44.18888" lon="0.75787">
        <ele>97.4</ele>
      </trkpt>
      <trkpt lat="44.18887" lon="0.75799">
        <ele>95.3</ele>
        <time>2024-01-09T16:20:24+01:00</time>
      </trkpt>
      <trkpt lat="44.18893" lon="0.75809">
        <ele>93</ele>
        <time>2024-01-09T16:20:33+01:00</time>
      </trkpt>
      <trkpt lat="44.18905" lon="0.75814">
        <ele>91.1</ele>
        <time>2024-01-09T16:20:53+01:00</time>
      </trkpt>
      <trkpt lat="44.18917" lon="0.75816">
        <ele>89.7</ele>
        <time>2024-01-09T16:21:03+01:00</time>
      </trkpt>
      <trkpt lat="44.18926" lon="0.75823">
        <ele>88.1</ele>
        <time>2024-01-09T16:21:13+01:00</time>
      </trkpt>
      <trkpt lat="44.18933" lon="0.75834">
        <ele>85.9</ele>
        <time>2024-01-09T16:21:23+01:00</time>
      </trkpt>
      <trkpt lat="44.18931" lon="0.7584">
        <ele>84.9</ele>
        <time>2024-01-09T16:21:33+01:00</time>
      </trkpt>
      <trkpt lat="44.18923" lon="0.75859">
        <ele>81.7</ele>
        <time>2024-01-09T16:21:43+01:00</time>
      </trkpt>
      <trkpt lat="44.18918" lon="0.75872">
        <ele>79.5</ele>
        <time>2024-01-09T16:21:53+01:00</time>
      </trkpt>
      <trkpt lat="44.18907" lon="0.759">
        <ele>75.9</ele>
        <time>2024-01-09T16:22:12+01:00</time>
      </trkpt>
      <trkpt lat="44.18901" lon="0.75913">
        <ele>74</ele>
        <time>2024-01-09T16:22:22+01:00</time>
      </trkpt>
      <trkpt lat="44.18894" lon="0.7594">
        <ele>69.2</ele>
        <time>2024-01-09T16:22:41+01:00</time>
      </trkpt>
      <trkpt lat="44.18889" lon="0.75955">
        <ele>68</ele>
        <time>2024-01-09T16:22:51+01:00</time>
      </trkpt>
      <trkpt lat="44.18867" lon="0.75999">
        <ele>63.5</ele>
        <time>2024-01-09T16:23:21+01:00</time>
      </trkpt>
      <trkpt lat="44.18856" lon="0.76026">
        <ele>62.7</ele>
        <time>2024-01-09T16:23:40+01:00</time>
      </trkpt>
      <trkpt lat="44.18837" lon="0.76063">
        <ele>61.1</ele>
        <time>2024-01-09T16:24:15+01:00</time>
      </trkpt>
      <trkpt lat="44.18831" lon="0.76075">
        <ele>60.9</ele>
        <time>2024-01-09T16:24:25+01:00</time>
      </trkpt>
      <trkpt lat="44.1882" lon="0.76066">
        <ele>60.8</ele>
        <time>2024-01-09T16:25:00+01:00</time>
      </trkpt>
      <trkpt lat="44.18809" lon="0.76054">
        <ele>61</ele>
        <time>2024-01-09T16:25:10+01:00</time>
      </trkpt>
      <trkpt lat="44.1879" lon="0.76029">
        <ele>60.4</ele>
        <time>2024-01-09T16:25:29+01:00</time>
      </trkpt>
      <trkpt lat="44.1877" lon="0.76006">
        <ele>61.1</ele>
        <time>2024-01-09T16:25:50+01:00</time>
      </trkpt>
      <trkpt lat="44.18746" lon="0.75987">
        <ele>61.3</ele>
        <time>2024-01-09T16:26:09+01:00</time>
      </trkpt>
      <trkpt lat="44.18732" lon="0.75993">
        <ele>60.6</ele>
        <time>2024-01-09T16:26:39+01:00</time>
      </trkpt>
      <trkpt lat="44.18724" lon="0.76009">
        <ele>59.7</ele>
        <time>2024-01-09T16:27:04+01:00</time>
      </trkpt>
      <trkpt lat="44.18718" lon="0.76024">
        <ele>59.1</ele>
        <time>2024-01-09T16:27:14+01:00</time>
      </trkpt>
      <trkpt lat="44.1871" lon="0.76038">
        <ele>59</ele>
        <time>2024-01-09T16:27:24+01:00</time>
      </trkpt>
      <trkpt lat="44.18704" lon="0.76051">
        <ele>59</ele>
        <time>2024-01-09T16:27:34+01:00</time>
      </trkpt>
      <trkpt lat="44.18697" lon="0.76062">
        <ele>59</ele>
        <time>2024-01-09T16:27:44+01:00</time>
      </trkpt>
      <trkpt lat="44.18683" lon="0.76093">
        <ele>59</ele>
        <time>2024-01-09T16:28:09+01:00</time>
      </trkpt>
      <trkpt lat="44.18677" lon="0.76103">
        <ele>58.3</ele>
        <time>2024-01-09T16:28:18+01:00</time>
      </trkpt>
      <trkpt lat="44.1866" lon="0.76113">
        <ele>57.6</ele>
        <time>2024-01-09T16:29:19+01:00</time>
      </trkpt>
      <trkpt lat="44.18655" lon="0.76098">
        <ele>58.9</ele>
        <time>2024-01-09T16:29:39+01:00</time>
      </trkpt>
      <trkpt lat="44.1865" lon="0.76083">
        <ele>60</ele>
        <time>2024-01-09T16:29:49+01:00</time>
      </trkpt>
      <trkpt lat="44.18642" lon="0.76075">
        <ele>59.7</ele>
        <time>2024-01-09T16:30:09+01:00</time>
      </trkpt>
      <trkpt lat="44.18631" lon="0.76087">
        <ele>59.6</ele>
        <time>2024-01-09T16:30:19+01:00</time>
      </trkpt>
      <trkpt lat="44.18618" lon="0.76091">
        <ele>59.2</ele>
        <time>2024-01-09T16:30:30+01:00</time>
      </trkpt>
      <trkpt lat="44.18596" lon="0.76105">
        <ele>59</ele>
        <time>2024-01-09T16:30:49+01:00</time>
      </trkpt>
      <trkpt lat="44.18587" lon="0.76112">
        <ele>59</ele>
        <time>2024-01-09T16:30:58+01:00</time>
      </trkpt>
      <trkpt lat="44.18568" lon="0.76125">
        <ele>59</ele>
        <time>2024-01-09T16:31:18+01:00</time>
      </trkpt>
      <trkpt lat="44.18559" lon="0.76134">
        <ele>59</ele>
        <time>2024-01-09T16:31:28+01:00</time>
      </trkpt>
      <trkpt lat="44.1855" lon="0.76137">
        <ele>59</ele>
        <time>2024-01-09T16:31:48+01:00</time>
      </trkpt>
      <trkpt lat="44.18532" lon="0.76149">
        <ele>59</ele>
        <time>2024-01-09T16:32:08+01:00</time>
      </trkpt>
      <trkpt lat="44.18509" lon="0.76158">
        <ele>59</ele>
        <time>2024-01-09T16:32:29+01:00</time>
      </trkpt>
      <trkpt lat="44.1849" lon="0.7617">
        <ele>59</ele>
        <time>2024-01-09T16:32:48+01:00</time>
      </trkpt>
      <trkpt lat="44.18467" lon="0.76179">
        <ele>59</ele>
        <time>2024-01-09T16:33:10+01:00</time>
      </trkpt>
      <trkpt lat="44.18456" lon="0.76186">
        <ele>59</ele>
        <time>2024-01-09T16:33:20+01:00</time>
      </trkpt>
      <trkpt lat="44.18445" lon="0.76191">
        <ele>59</ele>
        <time>2024-01-09T16:33:30+01:00</time>
      </trkpt>
      <trkpt lat="44.18434" lon="0.76196">
        <ele>59.4</ele>
        <time>2024-01-09T16:33:40+01:00</time>
      </trkpt>
      <trkpt lat="44.18424" lon="0.76202">
        <ele>59.8</ele>
        <time>2024-01-09T16:33:50+01:00</time>
      </trkpt>
      <trkpt lat="44.18414" lon="0.76206">
        <ele>60</ele>
        <time>2024-01-09T16:34:00+01:00</time>
      </trkpt>
      <trkpt lat="44.18406" lon="0.76213">
        <ele>59.7</ele>
        <time>2024-01-09T16:34:15+01:00</time>
      </trkpt>
      <trkpt lat="44.18395" lon="0.7621">
        <ele>59.6</ele>
        <time>2024-01-09T16:34:25+01:00</time>
      </trkpt>
      <trkpt lat="44.18388" lon="0.76198">
        <ele>59.9</ele>
        <time>2024-01-09T16:34:35+01:00</time>
      </trkpt>
      <trkpt lat="44.18381" lon="0.7618">
        <ele>59.8</ele>
        <time>2024-01-09T16:34:50+01:00</time>
      </trkpt>
      <trkpt lat="44.18373" lon="0.76171">
        <ele>59.5</ele>
        <time>2024-01-09T16:35:15+01:00</time>
      </trkpt>
      <trkpt lat="44.18365" lon="0.76178">
        <ele>59.5</ele>
        <time>2024-01-09T16:35:26+01:00</time>
      </trkpt>
      <trkpt lat="44.18355" lon="0.76175">
        <ele>59.7</ele>
        <time>2024-01-09T16:35:45+01:00</time>
      </trkpt>
      <trkpt lat="44.18345" lon="0.7618">
        <ele>60.4</ele>
        <time>2024-01-09T16:35:55+01:00</time>
      </trkpt>
      <trkpt lat="44.18334" lon="0.76188">
        <ele>61</ele>
        <time>2024-01-09T16:36:10+01:00</time>
      </trkpt>
      <trkpt lat="44.18323" lon="0.76179">
        <ele>61.2</ele>
        <time>2024-01-09T16:36:40+01:00</time>
      </trkpt>
      <trkpt lat="44.18318" lon="0.76164">
        <ele>61.4</ele>
        <time>2024-01-09T16:36:50+01:00</time>
      </trkpt>
      <trkpt lat="44.18295" lon="0.76103">
        <ele>60.5</ele>
        <time>2024-01-09T16:37:29+01:00</time>
      </trkpt>
      <trkpt lat="44.18274" lon="0.76064">
        <ele>61.1</ele>
        <time>2024-01-09T16:37:59+01:00</time>
      </trkpt>
      <trkpt lat="44.18267" lon="0.76053">
        <ele>61.2</ele>
        <time>2024-01-09T16:38:09+01:00</time>
      </trkpt>
      <trkpt lat="44.18239" lon="0.75997">
        <ele>60.4</ele>
        <time>2024-01-09T16:38:47+01:00</time>
      </trkpt>
      <trkpt lat="44.18231" lon="0.75991">
        <ele>60.7</ele>
        <time>2024-01-09T16:38:57+01:00</time>
      </trkpt>
      <trkpt lat="44.18221" lon="0.76002">
        <ele>61.1</ele>
        <time>2024-01-09T16:39:06+01:00</time>
      </trkpt>
      <trkpt lat="44.18214" lon="0.76015">
        <ele>61.7</ele>
        <time>2024-01-09T16:39:17+01:00</time>
      </trkpt>
      <trkpt lat="44.18207" lon="0.76025">
        <ele>62</ele>
        <time>2024-01-09T16:39:27+01:00</time>
      </trkpt>
      <trkpt lat="44.18195" lon="0.76039">
        <ele>62.4</ele>
        <time>2024-01-09T16:39:42+01:00</time>
      </trkpt>
      <trkpt lat="44.1818" lon="0.76061">
        <ele>62.9</ele>
        <time>2024-01-09T16:40:02+01:00</time>
      </trkpt>
      <trkpt lat="44.18173" lon="0.76074">
        <ele>62.9</ele>
        <time>2024-01-09T16:40:12+01:00</time>
      </trkpt>
      <trkpt lat="44.18165" lon="0.76084">
        <ele>63.1</ele>
        <time>2024-01-09T16:40:22+01:00</time>
      </trkpt>
      <trkpt lat="44.1816" lon="0.76097">
        <ele>64</ele>
        <time>2024-01-09T16:40:32+01:00</time>
      </trkpt>
      <trkpt lat="44.18148" lon="0.76119">
        <ele>64.3</ele>
        <time>2024-01-09T16:40:51+01:00</time>
      </trkpt>
      <trkpt lat="44.18138" lon="0.76124">
        <ele>64</ele>
        <time>2024-01-09T16:42:17+01:00</time>
      </trkpt>
      <trkpt lat="44.18131" lon="0.7612">
        <ele>64.4</ele>
        <time>2024-01-09T16:43:16+01:00</time>
      </trkpt>
      <trkpt lat="44.18114" lon="0.76103">
        <ele>64.6</ele>
        <time>2024-01-09T16:43:35+01:00</time>
      </trkpt>
      <trkpt lat="44.18105" lon="0.76101">
        <ele>64.6</ele>
        <time>2024-01-09T16:43:55+01:00</time>
      </trkpt>
      <trkpt lat="44.18093" lon="0.76094">
        <ele>64.4</ele>
        <time>2024-01-09T16:44:05+01:00</time>
      </trkpt>
      <trkpt lat="44.18082" lon="0.76098">
        <ele>64.6</ele>
        <time>2024-01-09T16:44:15+01:00</time>
      </trkpt>
      <trkpt lat="44.18068" lon="0.76099">
        <ele>64.8</ele>
        <time>2024-01-09T16:44:26+01:00</time>
      </trkpt>
      <trkpt lat="44.18055" lon="0.76093">
        <ele>65</ele>
        <time>2024-01-09T16:44:37+01:00</time>
      </trkpt>
      <trkpt lat="44.18032" lon="0.76094">
        <ele>65.8</ele>
        <time>2024-01-09T16:44:56+01:00</time>
      </trkpt>
      <trkpt lat="44.18012" lon="0.76086">
        <ele>66.1</ele>
        <time>2024-01-09T16:45:16+01:00</time>
      </trkpt>
      <trkpt lat="44.17999" lon="0.76081">
        <ele>66.1</ele>
        <time>2024-01-09T16:47:05+01:00</time>
      </trkpt>
      <trkpt lat="44.17987" lon="0.76073">
        <ele>66.7</ele>
        <time>2024-01-09T16:47:15+01:00</time>
      </trkpt>
      <trkpt lat="44.17968" lon="0.76062">
        <ele>67</ele>
        <time>2024-01-09T16:47:34+01:00</time>
      </trkpt>
      <trkpt lat="44.17962" lon="0.76064">
        <ele>67</ele>
      </trkpt>
      <trkpt lat="44.17947" lon="0.76079">
        <ele>67</ele>
        <time>2024-01-09T16:47:59+01:00</time>
      </trkpt>
      <trkpt lat="44.17936" lon="0.76077">
        <ele>67</ele>
        <time>2024-01-09T16:48:14+01:00</time>
      </trkpt>
      <trkpt lat="44.17921" lon="0.76085">
        <ele>67</ele>
        <time>2024-01-09T16:49:14+01:00</time>
      </trkpt>
    </trkseg>
  </trk>
</gpx>